This is the latest recevied weather packets stored in our database for station/object OE3TEC-15. If no packets are shown the sender has not sent any weather packets the latest 10 day(s).
| Time | Temp. | Humidity | Pressure | Rain* | Wind** | Luminosity | Snow |
|---|---|---|---|---|---|---|---|
| 1777593413 | 0.56° C | 76% | 1030 hPa | 0 mm | - | 0 W/m² | - |
| 1777592804 | 0.56° C | 75% | 1030.2 hPa | 0 mm | - | 0 W/m² | - |
| 1777592198 | 0.56° C | 75% | 1030 hPa | 0 mm | - | 0 W/m² | - |
| 1777591591 | 0.56° C | 75% | 1030.2 hPa | 0 mm | - | 0 W/m² | - |
| 1777590983 | 0.56° C | 74% | 1030.3 hPa | 0 mm | - | 0 W/m² | - |
| 1777590376 | 0.56° C | 74% | 1030.4 hPa | 0 mm | - | 0 W/m² | - |
| 1777589768 | 1.11° C | 73% | 1030.5 hPa | 0 mm | - | 0 W/m² | - |
| 1777589162 | 0.56° C | 73% | 1030.2 hPa | 0 mm | - | 0 W/m² | - |
| 1777588555 | 1.11° C | 72% | 1030.3 hPa | 0 mm | - | 0 W/m² | - |
| 1777587948 | 1.11° C | 72% | 1030.2 hPa | 0 mm | - | 0 W/m² | - |
| 1777587340 | 1.67° C | 71% | 1030 hPa | 0 mm | - | 0 W/m² | - |
| 1777586733 | 1.11° C | 72% | 1030 hPa | 0 mm | - | 0 W/m² | - |
| 1777586133 | 1.11° C | 71% | 1030 hPa | 0 mm | - | 0 W/m² | - |
| 1777585528 | 1.67° C | 71% | 1029.9 hPa | 0 mm | - | 0 W/m² | - |
| 1777584920 | 1.67° C | 71% | 1029.9 hPa | 0 mm | - | 0 W/m² | - |
| 1777584312 | 1.67° C | 69% | 1030 hPa | 0 mm | - | 0 W/m² | - |
| 1777583705 | 1.67° C | 70% | 1029.7 hPa | 0 mm | - | 0 W/m² | - |
| 1777583099 | 2.22° C | 68% | 1029.8 hPa | 0 mm | - | 0 W/m² | - |
| 1777582492 | 2.78° C | 65% | 1029.8 hPa | 0 mm | - | 0 W/m² | - |
| 1777581884 | 2.78° C | 64% | 1029.8 hPa | 0 mm | - | 0 W/m² | - |
| 1777581278 | 2.78° C | 64% | 1029.6 hPa | 0 mm | - | 0 W/m² | - |
| 1777580671 | 3.89° C | 60% | 1029.5 hPa | 0 mm | - | 0 W/m² | - |
| 1777580062 | 4.44° C | 59% | 1029.6 hPa | 0 mm | - | 0 W/m² | - |
| 1777579462 | 3.89° C | 62% | 1029.6 hPa | 0 mm | - | 0 W/m² | - |
| 1777578857 | 3.89° C | 61% | 1029.6 hPa | 0 mm | - | 0 W/m² | - |
* Rain latest hour (hover to see other rain measurements)
** Current wind speed in m/s (hover to see current wind gust speed)